sensor_id;sensor_type;location;lat;lon;timestamp;pressure;altitude;pressure_sealevel;temperature;humidity
69624;BME280;56843;52.020;5.670;2022-08-07T00:01:23;102522.75;;;11.57;71.24
69624;BME280;56843;52.020;5.670;2022-08-07T00:02:53;102522.47;;;11.53;71.59
69624;BME280;56843;52.020;5.670;2022-08-07T00:04:27;102521.19;;;11.51;71.46
69624;BME280;56843;52.020;5.670;2022-08-07T00:05:57;102517.47;;;11.47;71.46
69624;BME280;56843;52.020;5.670;2022-08-07T00:07:27;102518.06;;;11.44;71.47
69624;BME280;56843;52.020;5.670;2022-08-07T00:08:58;102515.97;;;11.41;71.72
69624;BME280;56843;52.020;5.670;2022-08-07T00:10:29;102521.88;;;11.38;71.70
69624;BME280;56843;52.020;5.670;2022-08-07T00:11:59;102521.34;;;11.36;71.90
69624;BME280;56843;52.020;5.670;2022-08-07T00:13:31;102521.94;;;11.33;72.10
69624;BME280;56843;52.020;5.670;2022-08-07T00:15:02;102520.13;;;11.28;72.05
69624;BME280;56843;52.020;5.670;2022-08-07T00:16:32;102511.88;;;11.25;72.29
69624;BME280;56843;52.020;5.670;2022-08-07T00:18:03;102523.66;;;11.24;72.27
69624;BME280;56843;52.020;5.670;2022-08-07T00:19:33;102526.09;;;11.20;72.25
69624;BME280;56843;52.020;5.670;2022-08-07T00:21:05;102516.78;;;11.18;72.37
69624;BME280;56843;52.020;5.670;2022-08-07T00:22:36;102519.72;;;11.16;72.54
69624;BME280;56843;52.020;5.670;2022-08-07T00:24:07;102510.38;;;11.14;72.32
69624;BME280;56843;52.020;5.670;2022-08-07T00:25:37;102515.50;;;11.10;72.48
69624;BME280;56843;52.020;5.670;2022-08-07T00:27:08;102513.91;;;11.09;72.59
69624;BME280;56843;52.020;5.670;2022-08-07T00:28:38;102507.28;;;11.06;72.43
69624;BME280;56843;52.020;5.670;2022-08-07T00:30:09;102506.47;;;11.06;72.91
69624;BME280;56843;52.020;5.670;2022-08-07T00:31:40;102509.41;;;11.04;72.72
69624;BME280;56843;52.020;5.670;2022-08-07T00:33:10;102502.78;;;11.02;72.85
69624;BME280;56843;52.020;5.670;2022-08-07T00:34:41;102503.03;;;11.00;72.70
69624;BME280;56843;52.020;5.670;2022-08-07T00:36:11;102501.72;;;10.98;72.87
69624;BME280;56843;52.020;5.670;2022-08-07T00:37:42;102492.41;;;10.95;72.90
69624;BME280;56843;52.020;5.670;2022-08-07T00:39:13;102509.53;;;10.94;72.81
69624;BME280;56843;52.020;5.670;2022-08-07T00:40:43;102491.88;;;10.93;72.97
69624;BME280;56843;52.020;5.670;2022-08-07T00:42:14;102489.50;;;10.92;72.94
69624;BME280;56843;52.020;5.670;2022-08-07T00:43:44;102497.53;;;10.92;73.09
69624;BME280;56843;52.020;5.670;2022-08-07T00:45:15;102488.69;;;10.91;73.10
69624;BME280;56843;52.020;5.670;2022-08-07T00:46:46;102491.66;;;10.90;73.02
69624;BME280;56843;52.020;5.670;2022-08-07T00:48:16;102494.91;;;10.87;72.97
69624;BME280;56843;52.020;5.670;2022-08-07T00:49:47;102491.44;;;10.86;73.10
69624;BME280;56843;52.020;5.670;2022-08-07T00:51:17;102487.47;;;10.84;73.04
69624;BME280;56843;52.020;5.670;2022-08-07T00:52:48;102496.53;;;10.83;73.11
69624;BME280;56843;52.020;5.670;2022-08-07T00:54:18;102496.84;;;10.81;73.34
69624;BME280;56843;52.020;5.670;2022-08-07T00:55:49;102494.44;;;10.80;73.19
69624;BME280;56843;52.020;5.670;2022-08-07T00:57:23;102492.34;;;10.77;73.21
69624;BME280;56843;52.020;5.670;2022-08-07T00:58:54;102484.59;;;10.75;73.52
69624;BME280;56843;52.020;5.670;2022-08-07T01:00:25;102485.16;;;10.72;73.47
69624;BME280;56843;52.020;5.670;2022-08-07T01:01:57;102488.91;;;10.71;73.55
69624;BME280;56843;52.020;5.670;2022-08-07T01:03:27;102482.78;;;10.71;73.49
69624;BME280;56843;52.020;5.670;2022-08-07T01:04:58;102484.13;;;10.68;73.53
69624;BME280;56843;52.020;5.670;2022-08-07T01:06:29;102488.16;;;10.66;73.57
69624;BME280;56843;52.020;5.670;2022-08-07T01:07:59;102480.69;;;10.63;73.73
69624;BME280;56843;52.020;5.670;2022-08-07T01:09:31;102482.84;;;10.61;73.89
69624;BME280;56843;52.020;5.670;2022-08-07T01:11:02;102484.22;;;10.58;74.12
69624;BME280;56843;52.020;5.670;2022-08-07T01:12:34;102473.03;;;10.56;73.94
69624;BME280;56843;52.020;5.670;2022-08-07T01:14:06;102481.31;;;10.55;74.08
69624;BME280;56843;52.020;5.670;2022-08-07T01:15:37;102485.34;;;10.52;74.20
69624;BME280;56843;52.020;5.670;2022-08-07T01:17:08;102483.78;;;10.51;74.27
69624;BME280;56843;52.020;5.670;2022-08-07T01:18:40;102487.50;;;10.50;74.24
69624;BME280;56843;52.020;5.670;2022-08-07T01:20:11;102481.94;;;10.47;74.46
69624;BME280;56843;52.020;5.670;2022-08-07T01:21:43;102476.59;;;10.47;74.39
69624;BME280;56843;52.020;5.670;2022-08-07T01:23:14;102484.34;;;10.43;74.41
69624;BME280;56843;52.020;5.670;2022-08-07T01:24:46;102484.66;;;10.42;74.62
69624;BME280;56843;52.020;5.670;2022-08-07T01:26:18;102484.13;;;10.40;74.66
69624;BME280;56843;52.020;5.670;2022-08-07T01:27:54;102486.28;;;10.38;74.76
69624;BME280;56843;52.020;5.670;2022-08-07T01:29:28;102481.22;;;10.36;74.74
69624;BME280;56843;52.020;5.670;2022-08-07T01:31:00;102483.34;;;10.34;74.82
69624;BME280;56843;52.020;5.670;2022-08-07T01:32:32;102482.84;;;10.32;74.91
69624;BME280;56843;52.020;5.670;2022-08-07T01:34:04;102477.50;;;10.32;74.81
69624;BME280;56843;52.020;5.670;2022-08-07T01:35:43;102470.84;;;10.29;75.17
69624;BME280;56843;52.020;5.670;2022-08-07T01:37:14;102472.75;;;10.29;75.18
69624;BME280;56843;52.020;5.670;2022-08-07T01:38:47;102470.63;;;10.26;75.14
69624;BME280;56843;52.020;5.670;2022-08-07T01:40:25;102476.25;;;10.24;75.15
69624;BME280;56843;52.020;5.670;2022-08-07T01:42:03;102470.09;;;10.24;75.23
69624;BME280;56843;52.020;5.670;2022-08-07T01:43:34;102469.31;;;10.23;75.41
69624;BME280;56843;52.020;5.670;2022-08-07T01:45:06;102466.13;;;10.21;75.30
69624;BME280;56843;52.020;5.670;2022-08-07T01:46:39;102465.31;;;10.21;75.35
69624;BME280;56843;52.020;5.670;2022-08-07T01:48:11;102467.47;;;10.19;75.37
69624;BME280;56843;52.020;5.670;2022-08-07T01:49:42;102461.31;;;10.18;75.40
69624;BME280;56843;52.020;5.670;2022-08-07T01:51:21;102462.69;;;10.16;75.59
69624;BME280;56843;52.020;5.670;2022-08-07T01:52:53;102462.13;;;10.14;75.63
69624;BME280;56843;52.020;5.670;2022-08-07T01:54:27;102460.03;;;10.11;75.84
69624;BME280;56843;52.020;5.670;2022-08-07T01:56:04;102461.09;;;10.10;75.70
69624;BME280;56843;52.020;5.670;2022-08-07T01:57:38;102459.50;;;10.09;75.77
69624;BME280;56843;52.020;5.670;2022-08-07T01:59:16;102462.44;;;10.07;75.74
69624;BME280;56843;52.020;5.670;2022-08-07T02:00:52;102458.19;;;10.06;75.77
69624;BME280;56843;52.020;5.670;2022-08-07T02:02:45;102454.44;;;10.07;75.82
69624;BME280;56843;52.020;5.670;2022-08-07T02:04:26;102458.75;;;10.03;75.88
69624;BME280;56843;52.020;5.670;2022-08-07T02:06:04;102461.69;;;10.02;75.91
69624;BME280;56843;52.020;5.670;2022-08-07T02:07:43;102459.84;;;10.02;76.08
69624;BME280;56843;52.020;5.670;2022-08-07T02:09:17;102460.91;;;10.01;75.88
69624;BME280;56843;52.020;5.670;2022-08-07T02:10:50;102464.38;;;10.02;75.87
69624;BME280;56843;52.020;5.670;2022-08-07T02:12:24;102457.72;;;9.99;76.16
69624;BME280;56843;52.020;5.670;2022-08-07T02:13:59;102459.56;;;9.99;75.88
69624;BME280;56843;52.020;5.670;2022-08-07T02:15:33;102463.34;;;9.98;76.00
69624;BME280;56843;52.020;5.670;2022-08-07T02:17:07;102461.72;;;9.97;76.21
69624;BME280;56843;52.020;5.670;2022-08-07T02:18:39;102458.25;;;9.96;76.19
69624;BME280;56843;52.020;5.670;2022-08-07T02:20:12;102454.81;;;9.96;75.98
69624;BME280;56843;52.020;5.670;2022-08-07T02:21:43;102459.88;;;9.97;76.10
69624;BME280;56843;52.020;5.670;2022-08-07T02:23:15;102448.38;;;9.97;76.29
69624;BME280;56843;52.020;5.670;2022-08-07T02:24:47;102453.72;;;9.97;75.99
69624;BME280;56843;52.020;5.670;2022-08-07T02:26:20;102449.47;;;9.96;76.25
69624;BME280;56843;52.020;5.670;2022-08-07T02:27:55;102452.69;;;9.93;76.13
69624;BME280;56843;52.020;5.670;2022-08-07T02:29:29;102452.16;;;9.91;76.32
69624;BME280;56843;52.020;5.670;2022-08-07T02:31:02;102453.53;;;9.88;76.42
69624;BME280;56843;52.020;5.670;2022-08-07T02:32:35;102455.38;;;9.88;76.56
69624;BME280;56843;52.020;5.670;2022-08-07T02:34:07;102451.13;;;9.87;76.61
69624;BME280;56843;52.020;5.670;2022-08-07T02:35:43;102448.72;;;9.85;76.70
69624;BME280;56843;52.020;5.670;2022-08-07T02:37:17;102446.84;;;9.86;76.62
69624;BME280;56843;52.020;5.670;2022-08-07T02:38:50;102454.06;;;9.85;76.77
69624;BME280;56843;52.020;5.670;2022-08-07T02:40:21;102449.00;;;9.84;76.68
69624;BME280;56843;52.020;5.670;2022-08-07T02:41:53;102446.34;;;9.84;76.65
69624;BME280;56843;52.020;5.670;2022-08-07T02:43:25;102445.53;;;9.83;76.69
69624;BME280;56843;52.020;5.670;2022-08-07T02:44:56;102446.63;;;9.82;76.66
69624;BME280;56843;52.020;5.670;2022-08-07T02:46:30;102454.88;;;9.81;76.91
69624;BME280;56843;52.020;5.670;2022-08-07T02:48:03;102446.13;;;9.80;76.86
69624;BME280;56843;52.020;5.670;2022-08-07T02:49:34;102450.94;;;9.78;76.93
69624;BME280;56843;52.020;5.670;2022-08-07T02:51:09;102457.59;;;9.76;77.07
69624;BME280;56843;52.020;5.670;2022-08-07T02:53:04;102443.19;;;9.77;77.09
69624;BME280;56843;52.020;5.670;2022-08-07T02:54:39;102448.81;;;9.75;77.19
69624;BME280;56843;52.020;5.670;2022-08-07T02:56:13;102440.00;;;9.75;76.96
69624;BME280;56843;52.020;5.670;2022-08-07T02:57:45;102446.13;;;9.75;77.01
69624;BME280;56843;52.020;5.670;2022-08-07T02:59:18;102451.75;;;9.74;77.11
69624;BME280;56843;52.020;5.670;2022-08-07T03:00:51;102451.25;;;9.72;77.05
69624;BME280;56843;52.020;5.670;2022-08-07T03:02:24;102444.59;;;9.69;77.09
69624;BME280;56843;52.020;5.670;2022-08-07T03:03:55;102439.50;;;9.68;77.19
69624;BME280;56843;52.020;5.670;2022-08-07T03:05:32;102446.97;;;9.66;77.02
69624;BME280;56843;52.020;5.670;2022-08-07T03:07:03;102438.22;;;9.65;77.23
69624;BME280;56843;52.020;5.670;2022-08-07T03:08:34;102446.47;;;9.63;77.31
69624;BME280;56843;52.020;5.670;2022-08-07T03:10:06;102435.78;;;9.63;77.18
69624;BME280;56843;52.020;5.670;2022-08-07T03:11:39;102440.06;;;9.65;77.30
69624;BME280;56843;52.020;5.670;2022-08-07T03:13:16;102438.22;;;9.65;77.20
69624;BME280;56843;52.020;5.670;2022-08-07T03:14:47;102437.91;;;9.67;77.10
69624;BME280;56843;52.020;5.670;2022-08-07T03:16:18;102433.41;;;9.67;77.18
69624;BME280;56843;52.020;5.670;2022-08-07T03:17:49;102444.84;;;9.68;77.11
69624;BME280;56843;52.020;5.670;2022-08-07T03:19:21;102442.16;;;9.68;77.10
69624;BME280;56843;52.020;5.670;2022-08-07T03:20:51;102441.41;;;9.67;77.04
69624;BME280;56843;52.020;5.670;2022-08-07T03:22:24;102435.53;;;9.65;77.14
69624;BME280;56843;52.020;5.670;2022-08-07T03:23:56;102438.97;;;9.66;77.26
69624;BME280;56843;52.020;5.670;2022-08-07T03:25:28;102434.72;;;9.65;77.14
69624;BME280;56843;52.020;5.670;2022-08-07T03:27:03;102440.06;;;9.65;77.26
69624;BME280;56843;52.020;5.670;2022-08-07T03:28:45;102440.31;;;9.63;77.26
69624;BME280;56843;52.020;5.670;2022-08-07T03:30:16;102443.78;;;9.63;77.28
69624;BME280;56843;52.020;5.670;2022-08-07T03:31:49;102445.94;;;9.61;77.44
69624;BME280;56843;52.020;5.670;2022-08-07T03:33:21;102448.09;;;9.59;77.37
69624;BME280;56843;52.020;5.670;2022-08-07T03:34:53;102444.09;;;9.57;77.46
69624;BME280;56843;52.020;5.670;2022-08-07T03:36:28;102445.44;;;9.54;77.50
69624;BME280;56843;52.020;5.670;2022-08-07T03:38:02;102441.19;;;9.53;77.61
69624;BME280;56843;52.020;5.670;2022-08-07T03:39:36;102440.69;;;9.51;77.78
69624;BME280;56843;52.020;5.670;2022-08-07T03:41:09;102448.16;;;9.49;77.73
69624;BME280;56843;52.020;5.670;2022-08-07T03:42:39;102443.59;;;9.50;77.86
69624;BME280;56843;52.020;5.670;2022-08-07T03:44:11;102444.69;;;9.49;77.78
69624;BME280;56843;52.020;5.670;2022-08-07T03:45:43;102447.06;;;9.50;77.85
69624;BME280;56843;52.020;5.670;2022-08-07T03:47:18;102440.94;;;9.50;77.78
69624;BME280;56843;52.020;5.670;2022-08-07T03:48:50;102439.88;;;9.51;77.93
69624;BME280;56843;52.020;5.670;2022-08-07T03:50:23;102436.41;;;9.50;77.83
69624;BME280;56843;52.020;5.670;2022-08-07T03:51:57;102433.75;;;9.50;77.66
69624;BME280;56843;52.020;5.670;2022-08-07T03:53:28;102442.03;;;9.49;77.73
69624;BME280;56843;52.020;5.670;2022-08-07T03:55:00;102436.41;;;9.50;77.81
69624;BME280;56843;52.020;5.670;2022-08-07T03:56:32;102440.16;;;9.49;77.94
69624;BME280;56843;52.020;5.670;2022-08-07T03:58:05;102439.63;;;9.47;77.82
69624;BME280;56843;52.020;5.670;2022-08-07T03:59:40;102438.84;;;9.47;77.88
69624;BME280;56843;52.020;5.670;2022-08-07T04:01:12;102448.69;;;9.46;77.83
69624;BME280;56843;52.020;5.670;2022-08-07T04:02:43;102446.84;;;9.47;77.94
69624;BME280;56843;52.020;5.670;2022-08-07T04:04:20;102450.56;;;9.46;77.83
69624;BME280;56843;52.020;5.670;2022-08-07T04:05:55;102445.22;;;9.46;77.74
69624;BME280;56843;52.020;5.670;2022-08-07T04:07:26;102447.09;;;9.45;77.87
69624;BME280;56843;52.020;5.670;2022-08-07T04:08:57;102450.84;;;9.44;78.01
69624;BME280;56843;52.020;5.670;2022-08-07T04:10:28;102438.06;;;9.41;77.99
69624;BME280;56843;52.020;5.670;2022-08-07T04:11:58;102444.47;;;9.40;78.09
69624;BME280;56843;52.020;5.670;2022-08-07T04:13:30;102438.88;;;9.37;78.11
69624;BME280;56843;52.020;5.670;2022-08-07T04:15:02;102455.69;;;9.37;78.13
69624;BME280;56843;52.020;5.670;2022-08-07T04:16:35;102442.88;;;9.39;78.14
69624;BME280;56843;52.020;5.670;2022-08-07T04:18:07;102448.19;;;9.39;78.12
69624;BME280;56843;52.020;5.670;2022-08-07T04:19:41;102452.47;;;9.40;78.16
69624;BME280;56843;52.020;5.670;2022-08-07T04:21:13;102448.19;;;9.39;78.27
69624;BME280;56843;52.020;5.670;2022-08-07T04:22:43;102447.41;;;9.39;78.37
69624;BME280;56843;52.020;5.670;2022-08-07T04:24:15;102447.13;;;9.40;78.20
69624;BME280;56843;52.020;5.670;2022-08-07T04:25:46;102447.13;;;9.40;78.16
69624;BME280;56843;52.020;5.670;2022-08-07T04:27:17;102447.91;;;9.41;78.12
69624;BME280;56843;52.020;5.670;2022-08-07T04:28:48;102453.25;;;9.41;78.16
69624;BME280;56843;52.020;5.670;2022-08-07T04:30:19;102452.47;;;9.40;78.21
69624;BME280;56843;52.020;5.670;2022-08-07T04:32:03;102459.66;;;9.40;78.18
69624;BME280;56843;52.020;5.670;2022-08-07T04:33:35;102456.19;;;9.39;78.32
69624;BME280;56843;52.020;5.670;2022-08-07T04:35:07;102460.72;;;9.39;78.37
69624;BME280;56843;52.020;5.670;2022-08-07T04:36:39;102468.72;;;9.39;78.14
69624;BME280;56843;52.020;5.670;2022-08-07T04:38:10;102464.19;;;9.39;78.34
69624;BME280;56843;52.020;5.670;2022-08-07T04:39:42;102469.25;;;9.41;78.04
69624;BME280;56843;52.020;5.670;2022-08-07T04:41:12;102468.19;;;9.42;78.37
69624;BME280;56843;52.020;5.670;2022-08-07T04:42:47;102459.91;;;9.43;78.17
69624;BME280;56843;52.020;5.670;2022-08-07T04:44:18;102466.56;;;9.46;78.13
69624;BME280;56843;52.020;5.670;2022-08-07T04:49:29;102466.28;;;9.47;77.91
69624;BME280;56843;52.020;5.670;2022-08-07T04:52:45;102467.59;;;9.50;78.15
69624;BME280;56843;52.020;5.670;2022-08-07T04:54:58;102469.22;;;9.51;77.95
69624;BME280;56843;52.020;5.670;2022-08-07T04:56:41;102467.59;;;9.50;78.00
69624;BME280;56843;52.020;5.670;2022-08-07T04:58:40;102469.22;;;9.51;77.94
69624;BME280;56843;52.020;5.670;2022-08-07T05:00:16;102458.53;;;9.51;77.95
69624;BME280;56843;52.020;5.670;2022-08-07T05:01:55;102473.72;;;9.55;77.88
69624;BME280;56843;52.020;5.670;2022-08-07T05:03:42;102467.81;;;9.58;77.83
69624;BME280;56843;52.020;5.670;2022-08-07T05:05:38;102469.16;;;9.61;77.69
69624;BME280;56843;52.020;5.670;2022-08-07T05:07:18;102464.09;;;9.65;77.60
69624;BME280;56843;52.020;5.670;2022-08-07T05:10:47;102464.56;;;9.72;77.53
69624;BME280;56843;52.020;5.670;2022-08-07T05:12:29;102462.44;;;9.74;77.37
69624;BME280;56843;52.020;5.670;2022-08-07T05:14:10;102468.28;;;9.76;77.22
69624;BME280;56843;52.020;5.670;2022-08-07T05:15:42;102466.13;;;9.78;77.26
69624;BME280;56843;52.020;5.670;2022-08-07T05:17:17;102464.78;;;9.80;77.31
69624;BME280;56843;52.020;5.670;2022-08-07T05:18:53;102469.56;;;9.83;77.37
69624;BME280;56843;52.020;5.670;2022-08-07T05:20:31;102470.88;;;9.86;77.48
69624;BME280;56843;52.020;5.670;2022-08-07T05:22:05;102458.84;;;9.88;77.33
69624;BME280;56843;52.020;5.670;2022-08-07T05:23:51;102469.50;;;9.93;77.31
69624;BME280;56843;52.020;5.670;2022-08-07T05:25:24;102478.84;;;9.96;77.23
69624;BME280;56843;52.020;5.670;2022-08-07T05:26:58;102467.59;;;9.99;77.39
69624;BME280;56843;52.020;5.670;2022-08-07T05:28:32;102477.72;;;10.02;77.27
69624;BME280;56843;52.020;5.670;2022-08-07T05:30:03;102471.03;;;10.04;77.29
69624;BME280;56843;52.020;5.670;2022-08-07T05:31:37;102467.53;;;10.09;77.20
69624;BME280;56843;52.020;5.670;2022-08-07T05:33:12;102470.41;;;10.12;77.25
69624;BME280;56843;52.020;5.670;2022-08-07T05:34:44;102472.81;;;10.14;77.15
69624;BME280;56843;52.020;5.670;2022-08-07T05:36:16;102473.91;;;10.18;77.22
69624;BME280;56843;52.020;5.670;2022-08-07T05:37:47;102465.06;;;10.22;77.33
69624;BME280;56843;52.020;5.670;2022-08-07T05:39:21;102475.97;;;10.26;77.17
69624;BME280;56843;52.020;5.670;2022-08-07T05:40:54;102472.75;;;10.29;77.24
69624;BME280;56843;52.020;5.670;2022-08-07T05:42:26;102472.97;;;10.32;77.15
69624;BME280;56843;52.020;5.670;2022-08-07T05:43:58;102479.34;;;10.37;77.17
69624;BME280;56843;52.020;5.670;2022-08-07T05:45:29;102474.25;;;10.40;77.08
69624;BME280;56843;52.020;5.670;2022-08-07T05:47:04;102478.75;;;10.45;77.21
69624;BME280;56843;52.020;5.670;2022-08-07T05:48:37;102481.34;;;10.50;77.13
69624;BME280;56843;52.020;5.670;2022-08-07T05:50:08;102483.19;;;10.54;77.10
69624;BME280;56843;52.020;5.670;2022-08-07T05:51:43;102484.22;;;10.58;77.01
69624;BME280;56843;52.020;5.670;2022-08-07T05:53:15;102486.03;;;10.63;76.97
69624;BME280;56843;52.020;5.670;2022-08-07T05:54:45;102481.47;;;10.68;77.01
69624;BME280;56843;52.020;5.670;2022-08-07T05:56:19;102485.16;;;10.72;77.00
69624;BME280;56843;52.020;5.670;2022-08-07T05:57:54;102487.00;;;10.77;76.82
69624;BME280;56843;52.020;5.670;2022-08-07T05:59:25;102484.53;;;10.80;76.84
69624;BME280;56843;52.020;5.670;2022-08-07T06:01:04;102489.03;;;10.85;76.85
69624;BME280;56843;52.020;5.670;2022-08-07T06:02:35;102489.00;;;10.90;76.83
69624;BME280;56843;52.020;5.670;2022-08-07T06:04:09;102487.84;;;10.96;76.65
69624;BME280;56843;52.020;5.670;2022-08-07T06:05:45;102493.94;;;11.01;76.31
69624;BME280;56843;52.020;5.670;2022-08-07T06:07:16;102493.09;;;11.06;76.27
69624;BME280;56843;52.020;5.670;2022-08-07T06:08:48;102492.25;;;11.11;76.32
69624;BME280;56843;52.020;5.670;2022-08-07T06:10:19;102495.94;;;11.15;76.45
69624;BME280;56843;52.020;5.670;2022-08-07T06:11:50;102491.63;;;11.19;76.25
69624;BME280;56843;52.020;5.670;2022-08-07T06:13:24;102485.63;;;11.27;76.16
69624;BME280;56843;52.020;5.670;2022-08-07T06:14:57;102478.34;;;11.32;76.19
69624;BME280;56843;52.020;5.670;2022-08-07T06:16:32;102484.97;;;11.40;75.88
69624;BME280;56843;52.020;5.670;2022-08-07T06:18:05;102483.00;;;11.45;75.90
69624;BME280;56843;52.020;5.670;2022-08-07T06:19:37;102485.56;;;11.55;75.85
69624;BME280;56843;52.020;5.670;2022-08-07T06:21:09;102481.47;;;11.63;75.53
69624;BME280;56843;52.020;5.670;2022-08-07T06:22:42;102485.09;;;11.72;75.29
69624;BME280;56843;52.020;5.670;2022-08-07T06:24:43;102487.69;;;11.77;75.04
69624;BME280;56843;52.020;5.670;2022-08-07T06:26:14;102489.13;;;11.88;74.59
69624;BME280;56843;52.020;5.670;2022-08-07T06:27:45;102497.59;;;11.95;74.45
69624;BME280;56843;52.020;5.670;2022-08-07T06:29:16;102503.09;;;12.04;74.52
69624;BME280;56843;52.020;5.670;2022-08-07T06:30:47;102497.06;;;12.12;74.17
69624;BME280;56843;52.020;5.670;2022-08-07T06:32:21;102495.13;;;12.17;73.91
69624;BME280;56843;52.020;5.670;2022-08-07T06:33:52;102496.34;;;12.25;73.94
69624;BME280;56843;52.020;5.670;2022-08-07T06:35:23;102491.41;;;12.32;73.40
69624;BME280;56843;52.020;5.670;2022-08-07T06:36:54;102489.34;;;12.42;73.57
69624;BME280;56843;52.020;5.670;2022-08-07T06:38:31;102495.06;;;12.54;73.09
69624;BME280;56843;52.020;5.670;2022-08-07T06:40:02;102495.84;;;12.69;72.57
69624;BME280;56843;52.020;5.670;2022-08-07T06:41:38;102486.97;;;12.87;72.37
69624;BME280;56843;52.020;5.670;2022-08-07T06:43:11;102486.00;;;13.10;71.48
69624;BME280;56843;52.020;5.670;2022-08-07T06:44:59;102478.72;;;13.38;70.50
69624;BME280;56843;52.020;5.670;2022-08-07T06:46:31;102476.59;;;13.62;69.90
69624;BME280;56843;52.020;5.670;2022-08-07T06:48:03;102476.03;;;13.87;69.31
69624;BME280;56843;52.020;5.670;2022-08-07T06:49:43;102483.44;;;14.26;68.66
69624;BME280;56843;52.020;5.670;2022-08-07T06:51:17;102475.19;;;14.75;66.86
69624;BME280;56843;52.020;5.670;2022-08-07T06:52:52;102471.31;;;15.46;65.08
69624;BME280;56843;52.020;5.670;2022-08-07T06:54:25;102471.22;;;16.20;62.79
69624;BME280;56843;52.020;5.670;2022-08-07T06:55:58;102475.44;;;16.92;60.69
69624;BME280;56843;52.020;5.670;2022-08-07T06:57:30;102474.06;;;17.66;58.69
69624;BME280;56843;52.020;5.670;2022-08-07T06:59:03;102477.28;;;18.33;57.02
69624;BME280;56843;52.020;5.670;2022-08-07T07:00:38;102476.25;;;18.94;55.45
69624;BME280;56843;52.020;5.670;2022-08-07T07:02:17;102475.53;;;19.58;54.07
69624;BME280;56843;52.020;5.670;2022-08-07T07:03:49;102474.41;;;20.14;52.22
69624;BME280;56843;52.020;5.670;2022-08-07T07:05:20;102474.25;;;20.66;51.25
69624;BME280;56843;52.020;5.670;2022-08-07T07:06:51;102475.97;;;21.05;50.39
69624;BME280;56843;52.020;5.670;2022-08-07T07:08:26;102472.94;;;21.42;49.52
69624;BME280;56843;52.020;5.670;2022-08-07T07:09:57;102473.84;;;21.84;48.48
69624;BME280;56843;52.020;5.670;2022-08-07T07:11:28;102481.84;;;22.15;47.60
69624;BME280;56843;52.020;5.670;2022-08-07T07:13:13;102473.69;;;22.38;46.52
69624;BME280;56843;52.020;5.670;2022-08-07T07:14:55;102473.09;;;22.71;46.16
69624;BME280;56843;52.020;5.670;2022-08-07T07:16:30;102474.91;;;23.12;45.03
69624;BME280;56843;52.020;5.670;2022-08-07T07:18:22;102477.78;;;23.49;44.34
69624;BME280;56843;52.020;5.670;2022-08-07T07:19:56;102475.84;;;23.79;43.54
69624;BME280;56843;52.020;5.670;2022-08-07T07:21:32;102476.59;;;24.09;42.57
69624;BME280;56843;52.020;5.670;2022-08-07T07:23:06;102480.03;;;24.43;42.03
69624;BME280;56843;52.020;5.670;2022-08-07T07:24:38;102479.97;;;24.79;41.29
69624;BME280;56843;52.020;5.670;2022-08-07T07:26:13;102480.56;;;25.06;40.49
69624;BME280;56843;52.020;5.670;2022-08-07T07:28:06;102472.13;;;25.32;40.11
69624;BME280;56843;52.020;5.670;2022-08-07T07:29:48;102475.06;;;25.71;39.05
69624;BME280;56843;52.020;5.670;2022-08-07T07:31:32;102481.31;;;25.79;38.37
69624;BME280;56843;52.020;5.670;2022-08-07T07:33:03;102483.38;;;25.99;37.87
69624;BME280;56843;52.020;5.670;2022-08-07T07:34:44;102481.09;;;26.26;37.35
69624;BME280;56843;52.020;5.670;2022-08-07T07:36:16;102487.00;;;26.56;36.92
69624;BME280;56843;52.020;5.670;2022-08-07T07:37:48;102490.91;;;26.83;36.20
69624;BME280;56843;52.020;5.670;2022-08-07T07:39:21;102486.59;;;27.11;36.01
69624;BME280;56843;52.020;5.670;2022-08-07T07:40:56;102481.44;;;27.37;35.37
69624;BME280;56843;52.020;5.670;2022-08-07T07:42:27;102488.81;;;27.54;35.34
69624;BME280;56843;52.020;5.670;2022-08-07T07:43:59;102489.50;;;27.76;34.65
69624;BME280;56843;52.020;5.670;2022-08-07T07:45:31;102485.53;;;27.84;34.02
69624;BME280;56843;52.020;5.670;2022-08-07T07:47:02;102490.22;;;27.91;33.47
69624;BME280;56843;52.020;5.670;2022-08-07T07:48:34;102494.00;;;28.11;33.04
69624;BME280;56843;52.020;5.670;2022-08-07T07:50:06;102491.97;;;28.32;32.54
69624;BME280;56843;52.020;5.670;2022-08-07T07:51:38;102491.91;;;28.36;32.47
69624;BME280;56843;52.020;5.670;2022-08-07T07:53:11;102490.81;;;28.26;31.09
69624;BME280;56843;52.020;5.670;2022-08-07T07:54:42;102489.69;;;28.13;32.14
69624;BME280;56843;52.020;5.670;2022-08-07T07:56:16;102491.75;;;27.99;32.17
69624;BME280;56843;52.020;5.670;2022-08-07T07:57:49;102490.09;;;28.08;32.09
69624;BME280;56843;52.020;5.670;2022-08-07T07:59:20;102493.56;;;28.26;31.54
69624;BME280;56843;52.020;5.670;2022-08-07T08:00:51;102490.19;;;28.53;30.75
69624;BME280;56843;52.020;5.670;2022-08-07T08:02:25;102486.13;;;28.71;30.43
69624;BME280;56843;52.020;5.670;2022-08-07T08:04:02;102491.31;;;28.62;30.73
69624;BME280;56843;52.020;5.670;2022-08-07T08:05:38;102478.31;;;28.66;30.41
69624;BME280;56843;52.020;5.670;2022-08-07T08:07:10;102490.91;;;28.64;30.12
69624;BME280;56843;52.020;5.670;2022-08-07T08:08:41;102484.97;;;28.69;29.86
69624;BME280;56843;52.020;5.670;2022-08-07T08:10:13;102482.53;;;28.78;29.98
69624;BME280;56843;52.020;5.670;2022-08-07T08:11:44;102487.44;;;29.00;29.60
69624;BME280;56843;52.020;5.670;2022-08-07T08:13:15;102487.56;;;29.27;29.15
69624;BME280;56843;52.020;5.670;2022-08-07T08:14:46;102480.72;;;29.42;29.12
69624;BME280;56843;52.020;5.670;2022-08-07T08:16:19;102477.38;;;29.58;28.52
69624;BME280;56843;52.020;5.670;2022-08-07T08:17:50;102472.88;;;29.71;28.32
69624;BME280;56843;52.020;5.670;2022-08-07T08:19:26;102469.94;;;29.85;27.73